Leipzig Halle Airport EDDP

Flugplatz Daten

Name: Leipzig Halle Airport

Ident: EDDP

Lat: 51,43239975

Long: 12,24160004

Platzhöhe: 465 ft

IataCode: LEJ

City: Leipzig

Homepage: http://www.leipzig-halle-airport.de/en/index.html

Metar

2022/08/10 20:20
EDDP 102020Z 04007KT CAVOK 22/10 Q1024 NOSIG

Taf

2022/08/10 18:27
TAF EDDP 101700Z 1018/1118 07006KT CAVOK
Gewünschte Webcam nicht vorhanden? Dann fügen Sie eine hinzu. Sie wird dann so schnell wie möglich freigeschaltet
Url: Title: